sensor_id;sensor_type;location;lat;lon;timestamp;temperature;humidity
50969;DHT22;36982;51.474;7.228;2023-07-30T00:01:53;16.60;99.90
50969;DHT22;36982;51.474;7.228;2023-07-30T00:04:19;16.60;99.90
50969;DHT22;36982;51.474;7.228;2023-07-30T00:06:44;16.80;99.90
50969;DHT22;36982;51.474;7.228;2023-07-30T00:09:10;16.50;99.90
50969;DHT22;36982;51.474;7.228;2023-07-30T00:11:36;16.40;99.90
50969;DHT22;36982;51.474;7.228;2023-07-30T00:14:02;16.30;99.90
50969;DHT22;36982;51.474;7.228;2023-07-30T00:16:27;16.30;99.90
50969;DHT22;36982;51.474;7.228;2023-07-30T00:18:53;16.30;99.90
50969;DHT22;36982;51.474;7.228;2023-07-30T00:21:18;16.20;99.90
50969;DHT22;36982;51.474;7.228;2023-07-30T00:23:44;16.10;99.90
50969;DHT22;36982;51.474;7.228;2023-07-30T00:26:10;15.90;99.90
50969;DHT22;36982;51.474;7.228;2023-07-30T00:28:35;16.00;99.90
50969;DHT22;36982;51.474;7.228;2023-07-30T00:31:01;15.90;99.90
50969;DHT22;36982;51.474;7.228;2023-07-30T00:33:26;16.00;99.90
50969;DHT22;36982;51.474;7.228;2023-07-30T00:35:52;16.00;99.90
50969;DHT22;36982;51.474;7.228;2023-07-30T00:38:18;15.90;99.90
50969;DHT22;36982;51.474;7.228;2023-07-30T00:40:44;15.80;99.90
50969;DHT22;36982;51.474;7.228;2023-07-30T00:43:10;15.90;99.90
50969;DHT22;36982;51.474;7.228;2023-07-30T00:45:36;15.60;99.90
50969;DHT22;36982;51.474;7.228;2023-07-30T00:48:04;15.60;99.90
50969;DHT22;36982;51.474;7.228;2023-07-30T00:50:30;15.50;99.90
50969;DHT22;36982;51.474;7.228;2023-07-30T00:52:56;15.50;99.90
50969;DHT22;36982;51.474;7.228;2023-07-30T00:55:22;15.40;99.90
50969;DHT22;36982;51.474;7.228;2023-07-30T00:57:48;15.40;99.90
50969;DHT22;36982;51.474;7.228;2023-07-30T01:00:14;15.40;99.90
50969;DHT22;36982;51.474;7.228;2023-07-30T01:02:39;15.30;99.90
50969;DHT22;36982;51.474;7.228;2023-07-30T01:05:05;15.30;99.90
50969;DHT22;36982;51.474;7.228;2023-07-30T01:07:31;15.30;99.90
50969;DHT22;36982;51.474;7.228;2023-07-30T01:09:58;15.30;99.90
50969;DHT22;36982;51.474;7.228;2023-07-30T01:12:24;15.30;99.90
50969;DHT22;36982;51.474;7.228;2023-07-30T01:14:50;15.30;99.90
50969;DHT22;36982;51.474;7.228;2023-07-30T01:17:16;15.30;99.90
50969;DHT22;36982;51.474;7.228;2023-07-30T01:19:43;15.20;99.90
50969;DHT22;36982;51.474;7.228;2023-07-30T01:22:09;15.20;99.90
50969;DHT22;36982;51.474;7.228;2023-07-30T01:24:34;15.10;99.90
50969;DHT22;36982;51.474;7.228;2023-07-30T01:27:07;15.20;99.90
50969;DHT22;36982;51.474;7.228;2023-07-30T01:29:40;15.10;99.90
50969;DHT22;36982;51.474;7.228;2023-07-30T01:32:08;15.10;99.90
50969;DHT22;36982;51.474;7.228;2023-07-30T01:34:37;15.10;99.90
50969;DHT22;36982;51.474;7.228;2023-07-30T01:37:04;15.10;99.90
50969;DHT22;36982;51.474;7.228;2023-07-30T01:39:32;15.10;99.90
50969;DHT22;36982;51.474;7.228;2023-07-30T01:41:58;15.00;99.90
50969;DHT22;36982;51.474;7.228;2023-07-30T01:44:24;15.10;99.90
50969;DHT22;36982;51.474;7.228;2023-07-30T01:46:50;15.00;99.90
50969;DHT22;36982;51.474;7.228;2023-07-30T01:49:15;15.00;99.90
50969;DHT22;36982;51.474;7.228;2023-07-30T01:51:41;14.90;99.90
50969;DHT22;36982;51.474;7.228;2023-07-30T01:54:06;15.10;99.90
50969;DHT22;36982;51.474;7.228;2023-07-30T01:56:32;15.00;99.90
50969;DHT22;36982;51.474;7.228;2023-07-30T01:58:57;14.90;99.90
50969;DHT22;36982;51.474;7.228;2023-07-30T02:01:23;15.00;99.90
50969;DHT22;36982;51.474;7.228;2023-07-30T02:03:48;15.00;99.90
50969;DHT22;36982;51.474;7.228;2023-07-30T02:06:14;15.00;99.90
50969;DHT22;36982;51.474;7.228;2023-07-30T02:08:40;15.00;99.90
50969;DHT22;36982;51.474;7.228;2023-07-30T02:11:05;14.90;99.90
50969;DHT22;36982;51.474;7.228;2023-07-30T02:13:31;14.90;99.90
50969;DHT22;36982;51.474;7.228;2023-07-30T02:15:56;15.00;99.90
50969;DHT22;36982;51.474;7.228;2023-07-30T02:18:22;14.90;99.90
50969;DHT22;36982;51.474;7.228;2023-07-30T02:20:47;15.00;99.90
50969;DHT22;36982;51.474;7.228;2023-07-30T02:23:14;14.80;99.90
50969;DHT22;36982;51.474;7.228;2023-07-30T02:25:41;14.80;99.90
50969;DHT22;36982;51.474;7.228;2023-07-30T02:28:07;14.80;99.90
50969;DHT22;36982;51.474;7.228;2023-07-30T02:30:33;14.80;99.90
50969;DHT22;36982;51.474;7.228;2023-07-30T02:32:59;14.80;99.90
50969;DHT22;36982;51.474;7.228;2023-07-30T02:35:25;14.80;99.90
50969;DHT22;36982;51.474;7.228;2023-07-30T02:37:50;14.70;99.90
50969;DHT22;36982;51.474;7.228;2023-07-30T02:40:16;14.60;99.90
50969;DHT22;36982;51.474;7.228;2023-07-30T02:42:42;14.60;99.90
50969;DHT22;36982;51.474;7.228;2023-07-30T02:45:08;14.70;99.90
50969;DHT22;36982;51.474;7.228;2023-07-30T02:47:33;14.80;99.90
50969;DHT22;36982;51.474;7.228;2023-07-30T02:49:59;14.90;99.90
50969;DHT22;36982;51.474;7.228;2023-07-30T02:52:24;14.70;99.90
50969;DHT22;36982;51.474;7.228;2023-07-30T02:54:50;14.70;99.90
50969;DHT22;36982;51.474;7.228;2023-07-30T02:57:15;14.70;99.90
50969;DHT22;36982;51.474;7.228;2023-07-30T02:59:41;14.60;99.90
50969;DHT22;36982;51.474;7.228;2023-07-30T03:02:06;14.60;99.90
50969;DHT22;36982;51.474;7.228;2023-07-30T03:04:32;14.60;99.90
50969;DHT22;36982;51.474;7.228;2023-07-30T03:06:58;14.60;99.90
50969;DHT22;36982;51.474;7.228;2023-07-30T03:09:24;14.60;99.90
50969;DHT22;36982;51.474;7.228;2023-07-30T03:11:50;14.50;99.90
50969;DHT22;36982;51.474;7.228;2023-07-30T03:14:16;14.60;99.90
50969;DHT22;36982;51.474;7.228;2023-07-30T03:16:41;14.60;99.90
50969;DHT22;36982;51.474;7.228;2023-07-30T03:19:07;14.80;99.90
50969;DHT22;36982;51.474;7.228;2023-07-30T03:21:33;14.60;99.90
50969;DHT22;36982;51.474;7.228;2023-07-30T03:23:58;14.50;99.90
50969;DHT22;36982;51.474;7.228;2023-07-30T03:26:24;14.40;99.90
50969;DHT22;36982;51.474;7.228;2023-07-30T03:28:49;14.50;99.90
50969;DHT22;36982;51.474;7.228;2023-07-30T03:31:15;14.50;99.90
50969;DHT22;36982;51.474;7.228;2023-07-30T03:33:41;14.40;99.90
50969;DHT22;36982;51.474;7.228;2023-07-30T03:36:10;14.40;99.90
50969;DHT22;36982;51.474;7.228;2023-07-30T03:38:36;14.60;99.90
50969;DHT22;36982;51.474;7.228;2023-07-30T03:41:01;14.60;99.90
50969;DHT22;36982;51.474;7.228;2023-07-30T03:43:27;14.40;99.90
50969;DHT22;36982;51.474;7.228;2023-07-30T03:45:53;14.30;99.90
50969;DHT22;36982;51.474;7.228;2023-07-30T03:48:18;14.40;99.90
50969;DHT22;36982;51.474;7.228;2023-07-30T03:50:44;14.50;99.90
50969;DHT22;36982;51.474;7.228;2023-07-30T03:53:09;14.50;99.90
50969;DHT22;36982;51.474;7.228;2023-07-30T03:55:35;14.40;99.90
50969;DHT22;36982;51.474;7.228;2023-07-30T03:58:01;14.50;99.90
50969;DHT22;36982;51.474;7.228;2023-07-30T04:00:27;14.60;99.90
50969;DHT22;36982;51.474;7.228;2023-07-30T04:02:53;14.40;99.90
50969;DHT22;36982;51.474;7.228;2023-07-30T04:05:19;14.30;99.90
50969;DHT22;36982;51.474;7.228;2023-07-30T04:07:44;14.30;99.90
50969;DHT22;36982;51.474;7.228;2023-07-30T04:10:10;14.30;99.90
50969;DHT22;36982;51.474;7.228;2023-07-30T04:12:36;14.40;99.90
50969;DHT22;36982;51.474;7.228;2023-07-30T04:15:01;14.40;99.90
50969;DHT22;36982;51.474;7.228;2023-07-30T04:17:27;14.40;99.90
50969;DHT22;36982;51.474;7.228;2023-07-30T04:19:53;14.50;99.90
50969;DHT22;36982;51.474;7.228;2023-07-30T04:22:18;14.40;99.90
50969;DHT22;36982;51.474;7.228;2023-07-30T04:24:44;14.40;99.90
50969;DHT22;36982;51.474;7.228;2023-07-30T04:27:09;14.40;99.90
50969;DHT22;36982;51.474;7.228;2023-07-30T04:29:35;14.40;99.90
50969;DHT22;36982;51.474;7.228;2023-07-30T04:32:00;14.40;99.90
50969;DHT22;36982;51.474;7.228;2023-07-30T04:34:26;14.50;99.90
50969;DHT22;36982;51.474;7.228;2023-07-30T04:36:52;14.60;99.90
50969;DHT22;36982;51.474;7.228;2023-07-30T04:39:17;14.60;99.90
50969;DHT22;36982;51.474;7.228;2023-07-30T04:41:43;14.50;99.90
50969;DHT22;36982;51.474;7.228;2023-07-30T04:44:08;14.50;99.90
50969;DHT22;36982;51.474;7.228;2023-07-30T04:46:34;14.50;99.90
50969;DHT22;36982;51.474;7.228;2023-07-30T04:49:02;14.80;99.90
50969;DHT22;36982;51.474;7.228;2023-07-30T04:51:28;14.80;99.90
50969;DHT22;36982;51.474;7.228;2023-07-30T04:53:53;14.80;99.90
50969;DHT22;36982;51.474;7.228;2023-07-30T04:56:19;14.90;99.90
50969;DHT22;36982;51.474;7.228;2023-07-30T04:58:45;15.00;99.90
50969;DHT22;36982;51.474;7.228;2023-07-30T05:01:10;15.00;99.90
50969;DHT22;36982;51.474;7.228;2023-07-30T05:03:36;15.20;99.90
50969;DHT22;36982;51.474;7.228;2023-07-30T05:06:01;15.30;99.90
50969;DHT22;36982;51.474;7.228;2023-07-30T05:08:27;15.40;99.90
50969;DHT22;36982;51.474;7.228;2023-07-30T05:10:52;15.30;99.90
50969;DHT22;36982;51.474;7.228;2023-07-30T05:13:18;15.30;99.90
50969;DHT22;36982;51.474;7.228;2023-07-30T05:15:43;15.30;99.90
50969;DHT22;36982;51.474;7.228;2023-07-30T05:18:09;15.30;99.90
50969;DHT22;36982;51.474;7.228;2023-07-30T05:20:34;15.40;99.90
50969;DHT22;36982;51.474;7.228;2023-07-30T05:23:00;15.40;99.90
50969;DHT22;36982;51.474;7.228;2023-07-30T05:25:27;15.50;99.90
50969;DHT22;36982;51.474;7.228;2023-07-30T05:27:53;15.50;99.90
50969;DHT22;36982;51.474;7.228;2023-07-30T05:30:18;15.60;99.90
50969;DHT22;36982;51.474;7.228;2023-07-30T05:32:44;15.60;99.90
50969;DHT22;36982;51.474;7.228;2023-07-30T05:35:10;15.60;99.90
50969;DHT22;36982;51.474;7.228;2023-07-30T05:37:35;15.70;99.90
50969;DHT22;36982;51.474;7.228;2023-07-30T05:40:01;15.70;99.90
50969;DHT22;36982;51.474;7.228;2023-07-30T05:42:26;15.80;99.90
50969;DHT22;36982;51.474;7.228;2023-07-30T05:44:52;15.90;99.90
50969;DHT22;36982;51.474;7.228;2023-07-30T05:47:17;16.00;99.90
50969;DHT22;36982;51.474;7.228;2023-07-30T05:49:43;16.10;99.90
50969;DHT22;36982;51.474;7.228;2023-07-30T05:52:09;16.20;99.90
50969;DHT22;36982;51.474;7.228;2023-07-30T05:54:34;16.30;99.90
50969;DHT22;36982;51.474;7.228;2023-07-30T05:57:00;16.40;99.90
50969;DHT22;36982;51.474;7.228;2023-07-30T05:59:25;16.40;99.90
50969;DHT22;36982;51.474;7.228;2023-07-30T06:01:51;16.40;99.50
50969;DHT22;36982;51.474;7.228;2023-07-30T06:04:16;16.30;99.40
50969;DHT22;36982;51.474;7.228;2023-07-30T06:06:42;16.20;99.40
50969;DHT22;36982;51.474;7.228;2023-07-30T06:09:07;16.10;99.90
50969;DHT22;36982;51.474;7.228;2023-07-30T06:11:33;16.10;99.90
50969;DHT22;36982;51.474;7.228;2023-07-30T06:13:59;16.00;99.90
50969;DHT22;36982;51.474;7.228;2023-07-30T06:16:24;16.10;99.90
50969;DHT22;36982;51.474;7.228;2023-07-30T06:18:50;16.20;99.90
50969;DHT22;36982;51.474;7.228;2023-07-30T06:21:15;16.30;99.90
50969;DHT22;36982;51.474;7.228;2023-07-30T06:23:41;16.20;99.80
50969;DHT22;36982;51.474;7.228;2023-07-30T06:26:06;16.10;99.90
50969;DHT22;36982;51.474;7.228;2023-07-30T06:28:32;16.10;99.90
50969;DHT22;36982;51.474;7.228;2023-07-30T06:31:02;16.00;99.90
50969;DHT22;36982;51.474;7.228;2023-07-30T06:33:27;16.00;99.90
50969;DHT22;36982;51.474;7.228;2023-07-30T06:35:53;16.30;99.90
50969;DHT22;36982;51.474;7.228;2023-07-30T06:38:18;16.20;99.60
50969;DHT22;36982;51.474;7.228;2023-07-30T06:40:44;16.30;99.90
50969;DHT22;36982;51.474;7.228;2023-07-30T06:43:10;16.30;98.70
50969;DHT22;36982;51.474;7.228;2023-07-30T06:45:35;16.10;99.30
50969;DHT22;36982;51.474;7.228;2023-07-30T06:48:01;16.10;99.30
50969;DHT22;36982;51.474;7.228;2023-07-30T06:50:26;16.10;98.90
50969;DHT22;36982;51.474;7.228;2023-07-30T06:52:52;16.20;98.90
50969;DHT22;36982;51.474;7.228;2023-07-30T06:55:17;16.30;99.10
50969;DHT22;36982;51.474;7.228;2023-07-30T06:57:43;16.30;98.40
50969;DHT22;36982;51.474;7.228;2023-07-30T07:00:09;16.30;99.00
50969;DHT22;36982;51.474;7.228;2023-07-30T07:02:34;16.30;98.70
50969;DHT22;36982;51.474;7.228;2023-07-30T07:05:00;16.30;98.60
50969;DHT22;36982;51.474;7.228;2023-07-30T07:07:26;16.30;98.50
50969;DHT22;36982;51.474;7.228;2023-07-30T07:09:51;16.20;97.20
50969;DHT22;36982;51.474;7.228;2023-07-30T07:12:17;16.30;98.40
50969;DHT22;36982;51.474;7.228;2023-07-30T07:14:42;16.30;97.80
50969;DHT22;36982;51.474;7.228;2023-07-30T07:17:08;16.20;98.10
50969;DHT22;36982;51.474;7.228;2023-07-30T07:19:34;16.20;98.40
50969;DHT22;36982;51.474;7.228;2023-07-30T07:22:05;16.10;98.00
50969;DHT22;36982;51.474;7.228;2023-07-30T07:24:31;16.20;98.80
50969;DHT22;36982;51.474;7.228;2023-07-30T07:26:57;16.30;99.00
50969;DHT22;36982;51.474;7.228;2023-07-30T07:29:23;16.10;98.30
50969;DHT22;36982;51.474;7.228;2023-07-30T07:31:48;16.00;97.80
50969;DHT22;36982;51.474;7.228;2023-07-30T07:34:14;16.00;98.80
50969;DHT22;36982;51.474;7.228;2023-07-30T07:36:39;16.00;98.80
50969;DHT22;36982;51.474;7.228;2023-07-30T07:39:05;16.10;98.50
50969;DHT22;36982;51.474;7.228;2023-07-30T07:41:31;16.20;98.30
50969;DHT22;36982;51.474;7.228;2023-07-30T07:43:57;16.20;98.00
50969;DHT22;36982;51.474;7.228;2023-07-30T07:46:22;16.40;97.90
50969;DHT22;36982;51.474;7.228;2023-07-30T07:48:48;16.50;97.60
50969;DHT22;36982;51.474;7.228;2023-07-30T07:51:14;16.60;97.40
50969;DHT22;36982;51.474;7.228;2023-07-30T07:53:39;16.60;96.80
50969;DHT22;36982;51.474;7.228;2023-07-30T07:56:05;16.60;97.40
50969;DHT22;36982;51.474;7.228;2023-07-30T07:58:31;16.80;96.80
50969;DHT22;36982;51.474;7.228;2023-07-30T08:00:58;16.70;95.70
50969;DHT22;36982;51.474;7.228;2023-07-30T08:03:24;16.60;96.30
50969;DHT22;36982;51.474;7.228;2023-07-30T08:05:50;16.80;95.50
50969;DHT22;36982;51.474;7.228;2023-07-30T08:08:15;17.00;96.00
50969;DHT22;36982;51.474;7.228;2023-07-30T08:10:41;17.00;95.80
50969;DHT22;36982;51.474;7.228;2023-07-30T08:13:10;17.00;94.80
50969;DHT22;36982;51.474;7.228;2023-07-30T08:15:36;17.10;94.50
50969;DHT22;36982;51.474;7.228;2023-07-30T08:18:01;17.30;94.40
50969;DHT22;36982;51.474;7.228;2023-07-30T08:20:27;17.40;94.10
50969;DHT22;36982;51.474;7.228;2023-07-30T08:22:53;17.50;94.70
50969;DHT22;36982;51.474;7.228;2023-07-30T08:25:18;17.30;94.10
50969;DHT22;36982;51.474;7.228;2023-07-30T08:27:44;17.20;93.10
50969;DHT22;36982;51.474;7.228;2023-07-30T08:30:10;17.30;94.60
50969;DHT22;36982;51.474;7.228;2023-07-30T08:32:36;17.30;93.70
50969;DHT22;36982;51.474;7.228;2023-07-30T08:35:01;17.20;94.30
50969;DHT22;36982;51.474;7.228;2023-07-30T08:37:27;17.20;95.30
50969;DHT22;36982;51.474;7.228;2023-07-30T08:39:52;17.40;94.40
50969;DHT22;36982;51.474;7.228;2023-07-30T08:42:18;17.20;94.70
50969;DHT22;36982;51.474;7.228;2023-07-30T08:44:43;17.40;94.00
50969;DHT22;36982;51.474;7.228;2023-07-30T08:47:10;17.60;93.50
50969;DHT22;36982;51.474;7.228;2023-07-30T08:49:36;17.70;92.50
50969;DHT22;36982;51.474;7.228;2023-07-30T08:52:02;17.70;92.10
50969;DHT22;36982;51.474;7.228;2023-07-30T08:54:30;17.70;92.20
50969;DHT22;36982;51.474;7.228;2023-07-30T08:57:00;17.70;92.20
50969;DHT22;36982;51.474;7.228;2023-07-30T08:59:27;18.00;91.90
50969;DHT22;36982;51.474;7.228;2023-07-30T09:01:55;18.10;92.00
50969;DHT22;36982;51.474;7.228;2023-07-30T09:04:22;18.30;90.70
50969;DHT22;36982;51.474;7.228;2023-07-30T09:06:48;18.70;85.60
50969;DHT22;36982;51.474;7.228;2023-07-30T09:09:14;19.00;83.10
50969;DHT22;36982;51.474;7.228;2023-07-30T09:11:40;19.20;78.10
50969;DHT22;36982;51.474;7.228;2023-07-30T09:14:06;19.10;78.30
50969;DHT22;36982;51.474;7.228;2023-07-30T09:16:33;19.30;72.30
50969;DHT22;36982;51.474;7.228;2023-07-30T09:18:58;19.30;72.30
50969;DHT22;36982;51.474;7.228;2023-07-30T09:21:34;19.20;72.50
50969;DHT22;36982;51.474;7.228;2023-07-30T09:24:02;19.10;73.30
50969;DHT22;36982;51.474;7.228;2023-07-30T09:26:45;19.10;75.00
50969;DHT22;36982;51.474;7.228;2023-07-30T09:29:11;19.10;67.40
50969;DHT22;36982;51.474;7.228;2023-07-30T09:31:49;19.10;8.80
50969;DHT22;36982;51.474;7.228;2023-07-30T09:34:21;19.20;15.10
50969;DHT22;36982;51.474;7.228;2023-07-30T09:36:47;19.20;1.00
50969;DHT22;36982;51.474;7.228;2023-07-30T09:39:25;19.00;1.00
50969;DHT22;36982;51.474;7.228;2023-07-30T09:41:52;19.10;8.40
50969;DHT22;36982;51.474;7.228;2023-07-30T09:44:19;19.00;1.00
50969;DHT22;36982;51.474;7.228;2023-07-30T09:46:49;19.10;3.90
50969;DHT22;36982;51.474;7.228;2023-07-30T09:49:15;19.30;1.00
50969;DHT22;36982;51.474;7.228;2023-07-30T09:51:41;19.30;1.00
50969;DHT22;36982;51.474;7.228;2023-07-30T09:54:08;19.40;1.00
50969;DHT22;36982;51.474;7.228;2023-07-30T09:56:38;19.30;1.00
50969;DHT22;36982;51.474;7.228;2023-07-30T09:59:05;19.20;1.00
50969;DHT22;36982;51.474;7.228;2023-07-30T10:01:31;19.30;1.00
50969;DHT22;36982;51.474;7.228;2023-07-30T10:03:58;19.40;1.00
50969;DHT22;36982;51.474;7.228;2023-07-30T10:06:25;19.30;1.00
50969;DHT22;36982;51.474;7.228;2023-07-30T10:08:53;19.20;1.00
50969;DHT22;36982;51.474;7.228;2023-07-30T10:11:19;19.20;1.00
50969;DHT22;36982;51.474;7.228;2023-07-30T10:13:46;19.40;1.00
50969;DHT22;36982;51.474;7.228;2023-07-30T10:16:12;19.50;1.00
50969;DHT22;36982;51.474;7.228;2023-07-30T10:18:42;19.50;1.00
50969;DHT22;36982;51.474;7.228;2023-07-30T10:21:09;19.80;1.00
50969;DHT22;36982;51.474;7.228;2023-07-30T10:23:35;20.10;99.90
50969;DHT22;36982;51.474;7.228;2023-07-30T10:26:09;20.10;99.90
50969;DHT22;36982;51.474;7.228;2023-07-30T10:28:36;20.10;99.90
50969;DHT22;36982;51.474;7.228;2023-07-30T10:31:07;20.10;99.90
50969;DHT22;36982;51.474;7.228;2023-07-30T10:33:53;20.40;99.90
50969;DHT22;36982;51.474;7.228;2023-07-30T10:36:48;20.80;1.00
50969;DHT22;36982;51.474;7.228;2023-07-30T10:39:27;20.70;1.00
50969;DHT22;36982;51.474;7.228;2023-07-30T10:41:55;20.60;1.00
50969;DHT22;36982;51.474;7.228;2023-07-30T10:44:34;20.70;99.90
50969;DHT22;36982;51.474;7.228;2023-07-30T10:47:01;20.70;99.90
50969;DHT22;36982;51.474;7.228;2023-07-30T10:49:27;20.70;99.90
50969;DHT22;36982;51.474;7.228;2023-07-30T10:51:55;20.90;99.90
50969;DHT22;36982;51.474;7.228;2023-07-30T10:54:22;20.90;99.90
50969;DHT22;36982;51.474;7.228;2023-07-30T10:56:48;20.80;23.40
50969;DHT22;36982;51.474;7.228;2023-07-30T10:59:14;20.60;99.90
50969;DHT22;36982;51.474;7.228;2023-07-30T11:01:44;20.30;95.80
50969;DHT22;36982;51.474;7.228;2023-07-30T11:04:15;20.10;99.90
50969;DHT22;36982;51.474;7.228;2023-07-30T11:06:46;20.10;99.90
50969;DHT22;36982;51.474;7.228;2023-07-30T11:09:19;19.90;99.90
50969;DHT22;36982;51.474;7.228;2023-07-30T11:11:46;19.80;1.00
50969;DHT22;36982;51.474;7.228;2023-07-30T11:14:16;19.90;99.90
50969;DHT22;36982;51.474;7.228;2023-07-30T11:16:52;19.80;99.90
50969;DHT22;36982;51.474;7.228;2023-07-30T11:19:18;20.00;99.90
50969;DHT22;36982;51.474;7.228;2023-07-30T11:21:47;20.10;99.90
50969;DHT22;36982;51.474;7.228;2023-07-30T11:24:14;20.20;99.90
50969;DHT22;36982;51.474;7.228;2023-07-30T11:26:39;20.20;43.80
50969;DHT22;36982;51.474;7.228;2023-07-30T11:29:18;20.30;99.90
50969;DHT22;36982;51.474;7.228;2023-07-30T11:31:46;20.40;1.00
50969;DHT22;36982;51.474;7.228;2023-07-30T11:34:13;20.60;91.00
50969;DHT22;36982;51.474;7.228;2023-07-30T11:36:40;20.60;99.90
50969;DHT22;36982;51.474;7.228;2023-07-30T11:39:07;20.70;71.80
50969;DHT22;36982;51.474;7.228;2023-07-30T11:41:33;20.90;1.00
50969;DHT22;36982;51.474;7.228;2023-07-30T11:43:58;21.00;1.00
50969;DHT22;36982;51.474;7.228;2023-07-30T11:46:24;21.20;1.00
50969;DHT22;36982;51.474;7.228;2023-07-30T11:48:53;21.30;1.00
50969;DHT22;36982;51.474;7.228;2023-07-30T11:51:22;21.30;29.20
50969;DHT22;36982;51.474;7.228;2023-07-30T11:53:51;21.10;1.00
50969;DHT22;36982;51.474;7.228;2023-07-30T11:56:25;21.00;99.90
50969;DHT22;36982;51.474;7.228;2023-07-30T11:58:57;20.90;99.90
50969;DHT22;36982;51.474;7.228;2023-07-30T12:01:28;20.90;1.00
50969;DHT22;36982;51.474;7.228;2023-07-30T12:03:55;21.10;22.60
50969;DHT22;36982;51.474;7.228;2023-07-30T12:06:21;21.50;99.90
50969;DHT22;36982;51.474;7.228;2023-07-30T12:08:49;21.90;99.90
50969;DHT22;36982;51.474;7.228;2023-07-30T12:11:17;21.70;99.90
50969;DHT22;36982;51.474;7.228;2023-07-30T12:13:44;21.80;1.00
50969;DHT22;36982;51.474;7.228;2023-07-30T12:16:13;22.10;1.00
50969;DHT22;36982;51.474;7.228;2023-07-30T12:18:39;22.30;99.90
50969;DHT22;36982;51.474;7.228;2023-07-30T12:21:06;22.00;99.90
50969;DHT22;36982;51.474;7.228;2023-07-30T12:23:37;22.10;99.90
50969;DHT22;36982;51.474;7.228;2023-07-30T12:26:03;22.00;99.90
50969;DHT22;36982;51.474;7.228;2023-07-30T12:28:33;21.90;1.00
50969;DHT22;36982;51.474;7.228;2023-07-30T12:30:59;22.00;8.10
50969;DHT22;36982;51.474;7.228;2023-07-30T12:33:25;22.00;1.00
50969;DHT22;36982;51.474;7.228;2023-07-30T12:35:51;22.00;1.00
50969;DHT22;36982;51.474;7.228;2023-07-30T12:38:16;21.80;99.90
50969;DHT22;36982;51.474;7.228;2023-07-30T12:40:42;21.60;1.00
50969;DHT22;36982;51.474;7.228;2023-07-30T12:43:07;21.70;1.00
50969;DHT22;36982;51.474;7.228;2023-07-30T12:45:34;21.80;17.10
50969;DHT22;36982;51.474;7.228;2023-07-30T12:48:00;21.80;99.90
50969;DHT22;36982;51.474;7.228;2023-07-30T12:50:26;21.90;67.70
50969;DHT22;36982;51.474;7.228;2023-07-30T12:52:52;21.90;1.00
50969;DHT22;36982;51.474;7.228;2023-07-30T12:55:18;21.90;1.00
50969;DHT22;36982;51.474;7.228;2023-07-30T12:57:44;21.70;1.00
50969;DHT22;36982;51.474;7.228;2023-07-30T13:00:10;21.50;1.00
50969;DHT22;36982;51.474;7.228;2023-07-30T13:02:35;21.50;1.00
50969;DHT22;36982;51.474;7.228;2023-07-30T13:05:01;21.40;99.90
50969;DHT22;36982;51.474;7.228;2023-07-30T13:07:27;21.40;1.00
50969;DHT22;36982;51.474;7.228;2023-07-30T13:10:06;21.60;1.00
50969;DHT22;36982;51.474;7.228;2023-07-30T13:12:32;21.60;99.90
50969;DHT22;36982;51.474;7.228;2023-07-30T13:14:59;21.60;99.90
50969;DHT22;36982;51.474;7.228;2023-07-30T13:17:24;21.60;6.40
50969;DHT22;36982;51.474;7.228;2023-07-30T13:19:50;21.50;1.00
50969;DHT22;36982;51.474;7.228;2023-07-30T13:22:16;21.30;1.00
50969;DHT22;36982;51.474;7.228;2023-07-30T13:24:41;21.10;1.00
50969;DHT22;36982;51.474;7.228;2023-07-30T13:27:07;21.30;1.00
50969;DHT22;36982;51.474;7.228;2023-07-30T13:29:32;21.20;1.00
50969;DHT22;36982;51.474;7.228;2023-07-30T13:31:58;21.10;99.90
50969;DHT22;36982;51.474;7.228;2023-07-30T13:34:23;21.00;99.90
50969;DHT22;36982;51.474;7.228;2023-07-30T13:36:49;21.00;1.00
50969;DHT22;36982;51.474;7.228;2023-07-30T13:39:15;21.00;1.00
50969;DHT22;36982;51.474;7.228;2023-07-30T13:41:40;21.30;1.00
50969;DHT22;36982;51.474;7.228;2023-07-30T13:44:06;21.50;1.00
50969;DHT22;36982;51.474;7.228;2023-07-30T13:46:32;21.50;99.90
50969;DHT22;36982;51.474;7.228;2023-07-30T13:48:57;21.70;1.00
50969;DHT22;36982;51.474;7.228;2023-07-30T13:51:23;21.90;99.90
50969;DHT22;36982;51.474;7.228;2023-07-30T13:53:48;22.10;99.90
50969;DHT22;36982;51.474;7.228;2023-07-30T13:56:14;21.90;99.90
50969;DHT22;36982;51.474;7.228;2023-07-30T13:58:39;21.80;99.90
50969;DHT22;36982;51.474;7.228;2023-07-30T14:01:06;21.80;99.90
50969;DHT22;36982;51.474;7.228;2023-07-30T14:03:32;21.90;99.90
50969;DHT22;36982;51.474;7.228;2023-07-30T14:05:58;22.00;99.90
50969;DHT22;36982;51.474;7.228;2023-07-30T14:08:23;21.90;99.90
50969;DHT22;36982;51.474;7.228;2023-07-30T14:10:49;21.80;99.90
50969;DHT22;36982;51.474;7.228;2023-07-30T14:13:14;21.70;99.90
50969;DHT22;36982;51.474;7.228;2023-07-30T14:15:40;21.80;99.90
50969;DHT22;36982;51.474;7.228;2023-07-30T14:18:06;21.80;1.00
50969;DHT22;36982;51.474;7.228;2023-07-30T14:20:32;21.90;1.00
50969;DHT22;36982;51.474;7.228;2023-07-30T14:22:58;21.90;1.00
50969;DHT22;36982;51.474;7.228;2023-07-30T14:25:26;21.80;1.00
50969;DHT22;36982;51.474;7.228;2023-07-30T14:27:52;21.80;99.90
50969;DHT22;36982;51.474;7.228;2023-07-30T14:30:18;21.70;99.90
50969;DHT22;36982;51.474;7.228;2023-07-30T14:32:43;21.40;1.00
50969;DHT22;36982;51.474;7.228;2023-07-30T14:35:09;21.40;1.00
50969;DHT22;36982;51.474;7.228;2023-07-30T14:37:34;21.20;87.80
50969;DHT22;36982;51.474;7.228;2023-07-30T14:40:00;21.10;85.40
50969;DHT22;36982;51.474;7.228;2023-07-30T14:42:25;21.10;46.90
50969;DHT22;36982;51.474;7.228;2023-07-30T14:44:51;21.00;25.50
50969;DHT22;36982;51.474;7.228;2023-07-30T14:47:16;21.00;70.40
50969;DHT22;36982;51.474;7.228;2023-07-30T14:49:43;20.90;99.90
50969;DHT22;36982;51.474;7.228;2023-07-30T14:52:08;20.90;99.90
50969;DHT22;36982;51.474;7.228;2023-07-30T14:54:34;21.00;99.90
50969;DHT22;36982;51.474;7.228;2023-07-30T14:56:59;21.20;99.90
50969;DHT22;36982;51.474;7.228;2023-07-30T14:59:25;21.50;99.90
50969;DHT22;36982;51.474;7.228;2023-07-30T15:01:51;21.70;99.90
50969;DHT22;36982;51.474;7.228;2023-07-30T15:04:17;21.80;99.90
50969;DHT22;36982;51.474;7.228;2023-07-30T15:06:42;21.70;37.60
50969;DHT22;36982;51.474;7.228;2023-07-30T15:09:08;21.70;99.90
50969;DHT22;36982;51.474;7.228;2023-07-30T15:11:33;21.70;99.90
50969;DHT22;36982;51.474;7.228;2023-07-30T15:13:59;21.50;99.90
50969;DHT22;36982;51.474;7.228;2023-07-30T15:16:25;21.30;99.90
50969;DHT22;36982;51.474;7.228;2023-07-30T15:18:50;21.20;99.90
50969;DHT22;36982;51.474;7.228;2023-07-30T15:21:16;21.10;99.90
50969;DHT22;36982;51.474;7.228;2023-07-30T15:23:43;21.10;99.90
50969;DHT22;36982;51.474;7.228;2023-07-30T15:26:11;21.10;1.00
50969;DHT22;36982;51.474;7.228;2023-07-30T15:28:37;21.10;1.00